Time;durP1;ratioP1;P1;durP2;ratioP2;P2;SDS_P1;SDS_P2;PMS_P1;PMS_P2;Temp;Humidity;BMP_temperature;BMP_pressure;BME280_temperature;BME280_humidity;BME280_pressure;Samples;Min_cycle;Max_cycle;Signal;HPM_P1;HPM_P2
2022/10/13 00:02:18;;;;;;;27.00;15.18;;;;;;;14.02;66.63;100583.56;7631763;32;39864;-71
2022/10/13 00:06:34;;;;;;;24.48;14.50;;;;;;;13.67;67.82;100586.03;7631610;32;38683;-73
2022/10/13 00:10:50;;;;;;;23.00;14.05;;;;;;;14.05;66.57;100577.53;7614767;32;37028;-73
2022/10/13 00:15:07;;;;;;;20.60;12.93;;;;;;;13.88;66.90;100578.66;7605672;32;40285;-72
2022/10/13 00:19:24;;;;;;;23.50;13.88;;;;;;;14.04;66.44;100584.12;7605584;32;41004;-72
2022/10/13 00:23:40;;;;;;;21.70;13.70;;;;;;;13.97;66.62;100591.78;7605651;32;38037;-73
2022/10/13 00:27:56;;;;;;;23.02;13.60;;;;;;;14.21;65.65;100590.13;7617302;32;38075;-73
2022/10/13 00:32:12;;;;;;;22.25;14.00;;;;;;;14.03;66.24;100586.03;7605466;32;39127;-73
2022/10/13 00:36:29;;;;;;;20.52;13.52;;;;;;;14.13;65.83;100585.19;7605497;32;39753;-74
2022/10/13 00:40:53;;;;;;;24.87;13.93;;;;;;;14.14;65.63;100586.81;7605263;32;38800;-71
2022/10/13 00:45:28;;;;;;;25.95;14.60;;;;;;;13.87;66.39;100587.97;7617965;32;38060;-72
2022/10/13 00:49:44;;;;;;;25.05;14.32;;;;;;;13.87;66.54;100587.97;7605424;32;39136;-72
2022/10/13 00:54:02;;;;;;;22.92;13.50;;;;;;;13.83;66.61;100584.12;7605117;32;40723;-72
2022/10/13 00:58:20;;;;;;;23.00;13.00;;;;;;;13.85;66.41;100573.72;7604940;32;38855;-73
2022/10/13 01:02:37;;;;;;;20.20;13.57;;;;;;;13.97;65.88;100570.69;7611989;32;36374;-72
2022/10/13 01:06:54;;;;;;;25.37;14.80;;;;;;;14.07;65.37;100567.94;7629828;32;39434;-73
2022/10/13 01:11:34;;;;;;;21.73;13.82;;;;;;;13.73;66.37;100570.44;7620997;32;39746;-72
2022/10/13 01:16:07;;;;;;;31.42;14.55;;;;;;;14.14;65.23;100564.06;7603862;32;38072;-72
2022/10/13 01:20:57;;;;;;;23.73;15.10;;;;;;;14.05;65.45;100561.06;7603775;32;38083;-71
2022/10/13 01:25:38;;;;;;;26.17;14.38;;;;;;;14.10;65.75;100566.56;7605582;32;38974;-72
2022/10/13 01:30:21;;;;;;;23.27;14.02;;;;;;;14.04;65.97;100570.41;7603795;32;40625;-72
2022/10/13 01:34:58;;;;;;;21.12;14.55;;;;;;;14.26;64.85;100562.69;7597825;32;38157;-72
2022/10/13 01:39:23;;;;;;;22.50;14.13;;;;;;;13.79;65.70;100568.50;7603765;32;37764;-72
2022/10/13 01:43:46;;;;;;;21.40;13.57;;;;;;;14.01;64.85;100568.22;7616329;32;40128;-72
2022/10/13 01:48:03;;;;;;;27.33;14.43;;;;;;;13.69;65.76;100555.59;7629576;32;40771;-73
2022/10/13 01:52:21;;;;;;;28.23;15.43;;;;;;;13.99;64.84;100551.22;7629323;32;38136;-71
2022/10/13 01:56:37;;;;;;;30.45;15.30;;;;;;;13.75;65.51;100553.72;7629191;32;37506;-72
2022/10/13 02:01:04;;;;;;;25.10;15.65;;;;;;;13.58;66.48;100557.53;7630623;32;39215;-72
2022/10/13 02:05:29;;;;;;;24.08;14.20;;;;;;;13.84;65.62;100555.59;7623796;32;40786;-71
2022/10/13 02:10:13;;;;;;;22.10;13.38;;;;;;;14.02;64.74;100547.91;7604295;32;38930;-72
2022/10/13 02:14:32;;;;;;;23.08;14.18;;;;;;;13.87;65.19;100554.25;7604290;32;37996;-71
2022/10/13 02:18:49;;;;;;;25.15;15.75;;;;;;;13.92;64.91;100545.19;7603848;32;39342;-73
2022/10/13 02:23:09;;;;;;;25.67;14.52;;;;;;;13.72;65.66;100544.09;7604152;32;39929;-72
2022/10/13 02:27:25;;;;;;;21.35;13.30;;;;;;;13.98;65.18;100544.09;7608984;32;38822;-72
2022/10/13 02:31:42;;;;;;;23.75;14.10;;;;;;;13.68;66.16;100545.75;7630173;32;37273;-73
2022/10/13 02:35:58;;;;;;;22.35;14.85;;;;;;;13.66;66.29;100545.19;7630070;32;39192;-73
2022/10/13 02:40:14;;;;;;;23.30;14.15;;;;;;;13.53;66.51;100541.91;7629895;32;39792;-72
2022/10/13 02:44:31;;;;;;;25.05;13.90;;;;;;;13.71;66.05;100536.97;7629812;32;38247;-72
2022/10/13 02:48:47;;;;;;;25.83;15.15;;;;;;;13.81;65.67;100538.91;7625680;32;37230;-72
2022/10/13 02:53:03;;;;;;;23.30;14.20;;;;;;;13.81;65.88;100541.63;7615628;32;40133;-72
2022/10/13 02:57:19;;;;;;;22.52;13.85;;;;;;;13.86;65.59;100541.63;7629566;32;39432;-72
2022/10/13 03:01:40;;;;;;;24.27;14.00;;;;;;;13.84;65.51;100541.09;7629383;32;38206;-72
2022/10/13 03:05:56;;;;;;;24.65;14.20;;;;;;;13.76;65.62;100536.97;7628227;32;38029;-72
2022/10/13 03:10:12;;;;;;;26.37;14.95;;;;;;;13.87;65.29;100526.84;7611853;32;39392;-72
2022/10/13 03:14:28;;;;;;;24.70;13.35;;;;;;;13.95;64.86;100529.00;7604467;32;39857;-71
2022/10/13 03:18:46;;;;;;;24.08;14.98;;;;;;;14.00;64.56;100537.22;7612781;32;38005;-72
2022/10/13 03:23:03;;;;;;;27.83;15.23;;;;;;;14.14;64.18;100537.47;7624228;32;38465;-73
2022/10/13 03:27:19;;;;;;;25.27;15.38;;;;;;;14.12;64.12;100536.94;7630401;32;39327;-73
2022/10/13 03:31:35;;;;;;;24.40;15.23;;;;;;;14.02;64.46;100535.06;7632168;32;39996;-72
2022/10/13 03:35:51;;;;;;;28.17;15.07;;;;;;;13.85;64.99;100543.56;7632808;32;38123;-73
2022/10/13 03:40:08;;;;;;;24.95;14.65;;;;;;;14.15;63.99;100530.91;7633656;32;38035;-72
2022/10/13 03:44:25;;;;;;;25.50;14.80;;;;;;;14.19;63.38;100523.75;7633650;32;39480;-72
2022/10/13 03:48:41;;;;;;;27.05;16.08;;;;;;;13.83;64.64;100526.56;7633571;32;40101;-72
2022/10/13 03:52:57;;;;;;;22.73;15.13;;;;;;;13.76;65.23;100530.69;7633586;32;38059;-72
2022/10/13 03:57:13;;;;;;;25.90;14.65;;;;;;;13.64;65.50;100520.00;7633415;32;36974;-73
2022/10/13 04:01:29;;;;;;;25.83;14.18;;;;;;;13.71;65.13;100523.28;7633386;32;40320;-73
2022/10/13 04:05:46;;;;;;;25.55;16.65;;;;;;;13.82;63.70;100513.97;7633329;32;40907;-72
2022/10/13 04:10:02;;;;;;;31.52;15.50;;;;;;;12.87;67.23;100523.44;7632087;32;37669;-72
2022/10/13 04:14:19;;;;;;;27.27;15.60;;;;;;;13.30;66.11;100529.53;7632142;32;37865;-72
2022/10/13 04:18:35;;;;;;;25.65;15.13;;;;;;;13.22;65.86;100521.03;7633275;32;40067;-72
2022/10/13 04:22:54;;;;;;;27.17;14.70;;;;;;;13.39;65.11;100518.91;7633169;32;39804;-72
2022/10/13 04:27:10;;;;;;;24.50;14.23;;;;;;;13.37;64.93;100517.53;7632961;32;37874;-73
2022/10/13 04:31:28;;;;;;;29.50;15.85;;;;;;;13.20;65.00;100520.50;7633096;32;37591;-73
2022/10/13 04:35:44;;;;;;;35.85;15.18;;;;;;;13.25;64.76;100521.31;7633055;32;39008;-74
2022/10/13 04:40:00;;;;;;;28.58;15.60;;;;;;;13.24;64.72;100527.06;7632695;32;39803;-73
2022/10/13 04:44:16;;;;;;;27.23;14.13;;;;;;;13.47;63.50;100526.56;7632828;32;37806;-73
2022/10/13 04:48:32;;;;;;;25.25;13.77;;;;;;;13.24;63.41;100521.59;7632911;32;37408;-74
2022/10/13 04:52:48;;;;;;;21.85;13.38;;;;;;;13.07;63.78;100530.03;7632722;32;39286;-72
2022/10/13 04:57:04;;;;;;;25.23;14.70;;;;;;;13.01;63.70;100526.47;7632780;32;41115;-72
2022/10/13 05:01:22;;;;;;;22.45;14.45;;;;;;;13.11;63.08;100523.75;7632507;32;37835;-72
2022/10/13 05:05:38;;;;;;;26.95;13.20;;;;;;;13.01;63.39;100531.13;7632860;32;36978;-72
2022/10/13 05:09:54;;;;;;;31.45;14.52;;;;;;;13.03;63.38;100534.41;7632692;32;40000;-72
2022/10/13 05:14:10;;;;;;;29.90;15.30;;;;;;;13.17;63.07;100534.72;7632447;32;40687;-72
2022/10/13 05:18:26;;;;;;;52.20;17.08;;;;;;;12.97;64.01;100519.91;7632550;32;37784;-72
2022/10/13 05:22:42;;;;;;;34.17;16.90;;;;;;;12.89;64.83;100528.63;7632505;32;37047;-72
2022/10/13 05:26:58;;;;;;;32.28;17.98;;;;;;;12.84;66.44;100534.09;7632160;32;39358;-72
2022/10/13 05:31:20;;;;;;;28.55;17.60;;;;;;;12.89;66.66;100539.59;7632456;32;39868;-72
2022/10/13 05:35:36;;;;;;;27.55;15.88;;;;;;;13.04;66.73;100533.31;7632370;32;38626;-74
2022/10/13 05:39:52;;;;;;;74.30;17.70;;;;;;;13.31;66.25;100538.56;7632330;32;37916;-73
2022/10/13 05:44:09;;;;;;;39.20;17.15;;;;;;;12.66;69.52;100538.97;7632328;32;39160;-74
2022/10/13 05:48:25;;;;;;;181.68;19.98;;;;;;;13.26;67.65;100538.56;7630990;32;40791;-74
2022/10/13 05:52:41;;;;;;;215.27;21.52;;;;;;;12.98;68.59;100543.44;7631060;32;38641;-72
2022/10/13 05:57:05;;;;;;;260.42;23.73;;;;;;;12.45;71.03;100559.09;7632011;32;38011;-72
2022/10/13 06:01:23;;;;;;;175.75;21.37;;;;;;;12.60;70.71;100548.22;7630880;32;39299;-72
2022/10/13 06:05:41;;;;;;;273.27;21.90;;;;;;;12.62;70.65;100558.91;7632560;32;40722;-72
2022/10/13 06:09:58;;;;;;;75.82;19.23;;;;;;;13.24;68.44;100551.69;7631941;32;38160;-72
2022/10/13 06:14:14;;;;;;;144.45;19.87;;;;;;;13.17;68.96;100556.63;7626530;32;37266;-77
2022/10/13 06:18:30;;;;;;;85.72;18.83;;;;;;;12.52;74.48;100565.13;7625159;32;40089;-73
2022/10/13 06:22:48;;;;;;;174.93;23.05;;;;;;;13.30;71.60;100553.38;7631756;32;41183;-71
2022/10/13 06:27:04;;;;;;;60.20;18.95;;;;;;;13.61;68.43;100550.69;7631582;32;37976;-72
2022/10/13 06:31:20;;;;;;;113.90;18.45;;;;;;;13.74;67.21;100555.59;7631742;32;37456;-72
2022/10/13 06:35:36;;;;;;;144.65;20.33;;;;;;;13.68;67.13;100556.72;7630461;32;39922;-72
2022/10/13 06:39:52;;;;;;;106.70;18.40;;;;;;;13.26;68.45;100566.78;7631470;32;39575;-73
2022/10/13 06:44:09;;;;;;;107.85;18.62;;;;;;;13.41;68.38;100563.25;7631374;32;38608;-72
2022/10/13 06:48:27;;;;;;;59.60;18.92;;;;;;;13.51;68.31;100557.78;7631325;32;38382;-72
2022/10/13 06:52:43;;;;;;;62.60;17.75;;;;;;;13.37;68.57;100555.87;7631201;32;40067;-73
2022/10/13 06:56:59;;;;;;;30.88;16.30;;;;;;;13.19;69.48;100570.84;7631115;32;40061;-72
2022/10/13 07:01:15;;;;;;;50.95;16.23;;;;;;;13.53;68.75;100563.00;7631048;32;38004;-72
2022/10/13 07:05:31;;;;;;;31.70;17.02;;;;;;;13.60;67.99;100566.28;7630912;32;37112;-72
2022/10/13 07:09:47;;;;;;;47.45;17.45;;;;;;;13.83;67.38;100564.09;7630987;32;39338;-73
2022/10/13 07:14:03;;;;;;;147.55;21.30;;;;;;;13.79;68.04;100569.31;7630655;32;40855;-71
2022/10/13 07:18:19;;;;;;;47.10;19.27;;;;;;;13.58;68.65;100565.75;7630463;32;38009;-72
2022/10/13 07:22:35;;;;;;;165.52;21.33;;;;;;;13.87;68.45;100568.78;7630496;32;37252;-71
2022/10/13 07:26:51;;;;;;;237.73;23.05;;;;;;;13.72;68.28;100557.81;7630146;32;39375;-72
2022/10/13 07:31:13;;;;;;;55.58;20.85;;;;;;;12.60;72.40;100572.84;7630220;32;39729;-75
2022/10/13 07:35:29;;;;;;;48.00;19.58;;;;;;;12.95;73.71;100565.84;7630096;32;38758;-75
2022/10/13 07:39:46;;;;;;;37.90;20.92;;;;;;;13.92;69.23;100556.16;7630171;32;37587;-72
2022/10/13 07:44:02;;;;;;;35.03;20.17;;;;;;;13.79;69.12;100555.59;7629898;32;39909;-72
2022/10/13 07:48:18;;;;;;;105.07;21.35;;;;;;;14.19;67.65;100556.66;7629785;32;39882;-72
2022/10/13 07:52:35;;;;;;;33.53;20.23;;;;;;;12.67;72.27;100564.38;7629586;32;38014;-73
2022/10/13 07:56:54;;;;;;;50.92;20.75;;;;;;;13.21;70.96;100552.25;7629667;32;37282;-71
2022/10/13 08:01:11;;;;;;;41.45;21.08;;;;;;;13.55;69.00;100557.25;7629575;32;40116;-72
2022/10/13 08:05:27;;;;;;;40.58;21.50;;;;;;;13.34;70.82;100549.00;7629325;32;41027;-72
2022/10/13 08:09:43;;;;;;;34.53;19.15;;;;;;;14.50;67.00;100540.12;7627838;32;38910;-72
2022/10/13 08:13:59;;;;;;;35.42;21.52;;;;;;;14.48;66.81;100536.84;7629290;32;37274;-72
2022/10/13 08:18:15;;;;;;;34.83;20.05;;;;;;;13.31;71.23;100541.31;7633177;32;39215;-71
2022/10/13 08:22:33;;;;;;;34.83;19.65;;;;;;;14.13;68.69;100540.50;7633243;32;40035;-71
2022/10/13 08:26:49;;;;;;;31.85;19.55;;;;;;;14.78;66.69;100521.38;7633052;32;37994;-70
2022/10/13 08:31:05;;;;;;;33.17;19.90;;;;;;;13.72;70.96;100538.63;7633191;32;37269;-75
2022/10/13 08:35:22;;;;;;;30.95;19.00;;;;;;;13.90;70.49;100532.59;7633046;32;40162;-71
2022/10/13 08:39:38;;;;;;;29.55;17.17;;;;;;;15.33;65.52;100511.19;7632855;32;40271;-72
2022/10/13 08:44:00;;;;;;;27.42;16.83;;;;;;;15.28;64.52;100519.44;7632811;32;38849;-72
2022/10/13 08:48:40;;;;;;;26.17;16.73;;;;;;;16.14;62.48;100511.56;7632588;32;38363;-72
2022/10/13 08:52:57;;;;;;;25.83;16.67;;;;;;;16.41;60.86;100507.41;7632861;32;40059;-72
2022/10/13 08:57:13;;;;;;;28.12;16.20;;;;;;;15.75;62.48;100508.94;7632953;32;39895;-71
2022/10/13 09:01:31;;;;;;;28.27;15.60;;;;;;;16.00;62.67;100499.59;7632677;32;38081;-73
2022/10/13 09:05:58;;;;;;;26.77;16.10;;;;;;;16.36;60.92;100501.16;7632748;32;36663;-72
2022/10/13 09:10:15;;;;;;;24.65;15.07;;;;;;;16.77;59.17;100487.69;7631657;32;39901;-73
2022/10/13 09:14:34;;;;;;;22.17;14.98;;;;;;;16.46;59.65;100495.53;7632425;32;39927;-74
2022/10/13 09:18:50;;;;;;;26.10;14.30;;;;;;;17.15;58.21;100493.22;7632870;32;36107;-74
2022/10/13 09:23:19;;;;;;;22.90;13.40;;;;;;;16.87;59.23;100490.34;7632563;32;37841;-73
2022/10/13 09:27:53;;;;;;;22.15;13.00;;;;;;;17.63;57.48;100493.00;7630157;32;40231;-73
2022/10/13 09:32:20;;;;;;;21.37;13.15;;;;;;;17.80;55.24;100489.69;7632566;32;40126;-73
2022/10/13 09:36:37;;;;;;;21.87;11.93;;;;;;;17.39;55.96;100490.38;7632255;32;37824;-73
2022/10/13 09:40:59;;;;;;;22.00;12.77;;;;;;;17.87;56.89;100489.31;7632340;32;37290;-73
2022/10/13 09:45:17;;;;;;;20.33;12.95;;;;;;;18.20;54.20;100486.50;7632229;32;40020;-72
2022/10/13 09:49:42;;;;;;;45.22;13.43;;;;;;;19.10;51.96;100472.97;7630511;32;38943;-73
2022/10/13 09:53:58;;;;;;;16.92;9.25;;;;;;;19.45;52.01;100480.72;7630587;32;38777;-73
2022/10/13 09:58:24;;;;;;;15.30;8.82;;;;;;;20.03;48.54;100467.91;7632289;32;37275;-73
2022/10/13 10:02:59;;;;;;;22.33;9.15;;;;;;;20.94;45.18;100457.22;7619585;32;40099;-73
2022/10/13 10:07:22;;;;;;;18.62;8.55;;;;;;;21.63;44.20;100445.28;7632049;32;39939;-73
2022/10/13 10:11:39;;;;;;;;;;;;;;;22.26;42.64;100439.12;7628054;32;38881;-73
2022/10/13 10:16:16;;;;;;;20.35;9.05;;;;;;;22.47;42.71;100437.25;7628796;32;36896;-74
2022/10/13 10:20:35;;;;;;;17.23;8.52;;;;;;;22.43;41.81;100439.06;7628928;32;39130;-73
2022/10/13 10:25:09;;;;;;;15.07;8.25;;;;;;;23.24;40.61;100431.41;7631487;32;39886;-73
2022/10/13 10:29:32;;;;;;;23.77;10.02;;;;;;;23.56;40.21;100426.19;7631647;32;37993;-73
2022/10/13 10:34:03;;;;;;;14.45;9.77;;;;;;;22.94;40.91;100427.09;7630441;32;37173;-73
2022/10/13 10:38:47;;;;;;;18.37;10.30;;;;;;;22.46;41.31;100427.28;7631328;32;40150;-73
2022/10/13 10:43:21;;;;;;;14.50;8.20;;;;;;;22.18;41.95;100421.38;7631542;32;39925;-73
2022/10/13 10:47:41;;;;;;;16.60;8.82;;;;;;;23.20;41.85;100399.91;7631495;32;38827;-74
2022/10/13 10:51:59;;;;;;;16.60;8.13;;;;;;;23.54;39.71;100406.25;7631468;32;37919;-72
2022/10/13 10:56:21;;;;;;;17.10;7.85;;;;;;;24.09;38.96;100406.09;7631292;32;39244;-73
2022/10/13 11:00:47;;;;;;;13.70;7.17;;;;;;;24.91;36.64;100379.94;7631311;32;40112;-73
2022/10/13 11:05:04;;;;;;;12.85;7.65;;;;;;;25.03;36.57;100381.88;7629919;32;38700;-72
2022/10/13 11:09:40;;;;;;;9.98;6.57;;;;;;;24.78;36.33;100375.56;7630996;32;37243;-73
2022/10/13 11:14:16;;;;;;;16.15;8.05;;;;;;;25.46;34.65;100369.91;7630579;32;39344;-74
2022/10/13 11:19:24;;;;;;;11.57;6.62;;;;;;;25.43;33.81;100361.47;7630436;32;40710;-75
2022/10/13 11:23:45;;;;;;;12.73;6.40;;;;;;;25.20;33.94;100359.25;7630256;32;35809;-74
2022/10/13 11:28:19;;;;;;;13.40;6.05;;;;;;;25.78;33.99;100349.56;7630134;32;37029;-73
2022/10/13 11:36:55;;;;;;;13.25;6.75;;;;;;;26.40;31.73;100341.44;7630231;32;39984;-73
2022/10/13 11:41:17;;;;;;;12.13;6.35;;;;;;;25.76;33.17;100333.16;7629117;32;37996;-73
2022/10/13 11:46:15;;;;;;;13.00;7.50;;;;;;;24.92;35.18;100337.78;7629149;32;37114;-73
2022/10/13 11:50:34;;;;;;;16.80;7.93;;;;;;;24.77;35.77;100332.13;7616648;32;39483;-74
2022/10/13 11:55:12;;;;;;;15.43;7.45;;;;;;;24.22;34.73;100326.13;7633158;32;39923;-74
2022/10/13 11:59:38;;;;;;;12.48;7.30;;;;;;;23.91;35.27;100322.78;7632358;32;38673;-73
2022/10/13 12:03:54;;;;;;;14.55;8.43;;;;;;;23.92;34.80;100324.44;7633116;32;37938;-73
2022/10/13 12:08:10;;;;;;;19.12;7.35;;;;;;;23.36;36.85;100324.94;7632260;32;39077;-73
2022/10/13 12:12:26;;;;;;;14.55;6.97;;;;;;;22.94;37.96;100321.44;7633433;32;40580;-73
2022/10/13 12:17:01;;;;;;;16.50;8.50;;;;;;;22.58;38.92;100317.38;7630315;32;37724;-73
2022/10/13 12:21:21;;;;;;;12.82;7.37;;;;;;;22.61;38.80;100311.13;7630634;32;37116;-74
2022/10/13 12:25:37;;;;;;;11.10;6.03;;;;;;;22.79;38.92;100309.81;7631712;32;40257;-74
2022/10/13 12:29:53;;;;;;;18.05;6.70;;;;;;;22.46;39.98;100304.25;7632443;32;40880;-74
2022/10/13 12:34:29;;;;;;;12.45;6.07;;;;;;;22.38;40.48;100300.38;7633079;32;38767;-74
2022/10/13 12:38:51;;;;;;;19.52;8.88;;;;;;;22.58;40.69;100301.53;7633122;32;37941;-73
2022/10/13 12:43:12;;;;;;;15.27;6.78;;;;;;;22.38;40.86;100292.03;7631927;32;40207;-73
2022/10/13 12:47:47;;;;;;;14.00;6.37;;;;;;;22.26;40.36;100295.53;7631834;32;39907;-73
2022/10/13 12:52:13;;;;;;;12.15;6.60;;;;;;;22.31;40.07;100292.56;7632926;32;38827;-74
2022/10/13 12:56:30;;;;;;;11.10;6.18;;;;;;;22.40;39.33;100292.50;7632907;32;37892;-74
2022/10/13 13:00:56;;;;;;;17.58;6.55;;;;;;;22.45;39.61;100291.50;7632661;32;40074;-74
2022/10/13 13:05:31;;;;;;;14.38;6.15;;;;;;;22.20;40.84;100280.25;7632922;32;40860;-73
2022/10/13 13:10:07;;;;;;;13.77;6.70;;;;;;;21.62;41.81;100281.91;7632632;32;37965;-74
2022/10/13 13:14:36;;;;;;;14.20;6.95;;;;;;;21.72;41.67;100282.34;7632617;32;38000;-73
2022/10/13 13:18:52;;;;;;;18.25;9.30;;;;;;;21.82;41.85;100274.75;7632861;32;39246;-73
2022/10/13 13:23:07;;;;;;;22.35;8.02;;;;;;;21.85;41.33;100276.88;7632570;32;39904;-74
2022/10/13 13:27:37;;;;;;;18.17;7.70;;;;;;;22.00;41.50;100265.19;7632268;32;37941;-73
2022/10/13 13:31:53;;;;;;;18.52;8.48;;;;;;;21.73;42.34;100266.50;7632568;32;37116;-74
2022/10/13 13:36:29;;;;;;;16.92;7.60;;;;;;;21.72;41.22;100271.25;7632482;32;39368;-73
2022/10/13 13:40:45;;;;;;;21.62;9.27;;;;;;;21.97;40.62;100265.84;7632391;32;40824;-74
2022/10/13 13:45:01;;;;;;;20.48;7.70;;;;;;;22.05;41.05;100259.44;7632303;32;38763;-73
2022/10/13 13:49:17;;;;;;;16.25;7.07;;;;;;;22.04;41.16;100252.28;7632362;32;37364;-74
2022/10/13 13:53:33;;;;;;;14.85;6.97;;;;;;;21.90;41.00;100248.94;7632402;32;40237;-73
2022/10/13 13:57:49;;;;;;;18.67;7.30;;;;;;;21.88;41.34;100237.34;7632137;32;40903;-72
2022/10/13 14:02:10;;;;;;;11.38;6.65;;;;;;;21.67;42.12;100243.69;7632095;32;38166;-73
2022/10/13 14:06:27;;;;;;;14.63;6.75;;;;;;;22.04;42.10;100243.09;7632140;32;38233;-74
2022/10/13 14:10:42;;;;;;;17.25;6.62;;;;;;;22.03;40.93;100245.09;7631759;32;39511;-74
2022/10/13 14:14:59;;;;;;;13.60;6.53;;;;;;;21.80;41.09;100238.22;7631064;32;41054;-73
2022/10/13 14:19:15;;;;;;;14.93;6.37;;;;;;;21.60;42.46;100240.63;7632090;32;37899;-73
2022/10/13 14:23:31;;;;;;;20.02;7.00;;;;;;;21.66;42.47;100236.53;7631900;32;37237;-73
2022/10/13 14:27:47;;;;;;;14.70;6.72;;;;;;;21.32;43.32;100234.72;7631684;32;39447;-73
2022/10/13 14:32:03;;;;;;;11.77;6.68;;;;;;;21.34;42.76;100237.97;7631754;32;40751;-73
2022/10/13 14:36:19;;;;;;;16.65;6.50;;;;;;;21.22;42.83;100235.09;7631658;32;38203;-74
2022/10/13 14:40:39;;;;;;;15.02;7.03;;;;;;;20.96;43.77;100239.56;7631679;32;37928;-73
2022/10/13 14:44:55;;;;;;;23.05;7.65;;;;;;;20.95;43.82;100234.38;7630618;32;39210;-75
2022/10/13 14:49:11;;;;;;;13.00;6.43;;;;;;;21.45;42.86;100235.62;7631477;32;39889;-76
2022/10/13 14:53:27;;;;;;;12.95;6.47;;;;;;;22.26;40.84;100228.06;7631221;32;37938;-75
2022/10/13 14:57:43;;;;;;;15.30;6.72;;;;;;;23.10;38.80;100224.34;7631271;32;37506;-74
2022/10/13 15:01:59;;;;;;;11.40;6.37;;;;;;;23.15;38.55;100224.09;7631592;32;39375;-76
2022/10/13 15:06:19;;;;;;;12.45;6.30;;;;;;;23.82;37.87;100224.69;7631183;32;40694;-75
2022/10/13 15:10:35;;;;;;;13.65;6.35;;;;;;;24.68;35.37;100210.47;7631043;32;38044;-75
2022/10/13 15:14:51;;;;;;;17.52;8.63;;;;;;;24.32;36.04;100217.78;7630858;32;37268;-75
2022/10/13 15:19:07;;;;;;;13.50;8.23;;;;;;;23.33;37.99;100219.94;7630788;32;39455;-75
2022/10/13 15:23:24;;;;;;;28.27;10.18;;;;;;;22.71;39.39;100226.53;7630151;32;39968;-76
2022/10/13 15:27:40;;;;;;;25.30;10.00;;;;;;;22.03;40.98;100231.19;7633703;32;38495;-75
2022/10/13 15:32:08;;;;;;;17.65;8.90;;;;;;;21.65;41.98;100234.09;7633827;32;37216;-76
2022/10/13 15:36:24;;;;;;;18.52;7.55;;;;;;;21.14;42.89;100222.88;7631216;32;40035;-75
2022/10/13 15:40:41;;;;;;;15.18;7.43;;;;;;;20.75;43.72;100227.59;7633760;32;40228;-74
2022/10/13 15:44:57;;;;;;;15.30;7.28;;;;;;;20.55;44.06;100221.56;7631460;32;38709;-74
2022/10/13 15:49:28;;;;;;;14.00;6.90;;;;;;;20.06;45.95;100227.28;7615871;32;38105;-74
2022/10/13 15:53:45;;;;;;;19.37;7.95;;;;;;;20.05;45.87;100228.41;7616841;32;39279;-75
2022/10/13 15:58:01;;;;;;;16.77;7.85;;;;;;;19.56;46.87;100222.16;7632875;32;40846;-76
2022/10/13 16:02:17;;;;;;;16.30;8.18;;;;;;;19.75;46.13;100230.19;7632946;32;37969;-76
2022/10/13 16:06:36;;;;;;;17.00;8.35;;;;;;;19.39;47.02;100227.66;7632867;32;38045;-75
2022/10/13 16:10:52;;;;;;;16.85;7.90;;;;;;;19.51;46.92;100228.62;7633092;32;38468;-74
2022/10/13 16:15:08;;;;;;;16.60;7.68;;;;;;;19.19;48.14;100229.03;7632914;32;40794;-75
2022/10/13 16:19:24;;;;;;;15.00;8.65;;;;;;;18.53;50.36;100240.66;7632655;32;37891;-74
2022/10/13 16:23:41;;;;;;;14.68;8.65;;;;;;;18.35;51.02;100235.03;7633002;32;37230;-74
2022/10/13 16:27:58;;;;;;;22.58;9.52;;;;;;;17.87;52.26;100234.75;7631406;32;40169;-76
2022/10/13 16:32:14;;;;;;;18.52;7.85;;;;;;;17.88;51.91;100241.91;7632870;32;40757;-74
2022/10/13 16:36:30;;;;;;;16.58;7.37;;;;;;;17.56;52.67;100240.91;7631108;32;37877;-74
2022/10/13 16:40:46;;;;;;;17.23;7.45;;;;;;;17.52;52.52;100248.97;7632442;32;37174;-75
2022/10/13 16:45:02;;;;;;;20.90;8.18;;;;;;;17.41;52.49;100244.78;7632798;32;40125;-74
2022/10/13 16:49:18;;;;;;;17.62;7.20;;;;;;;17.27;52.71;100250.31;7632374;32;39852;-74
2022/10/13 16:53:34;;;;;;;20.23;7.85;;;;;;;17.40;52.22;100243.16;7632626;32;38467;-74
2022/10/13 16:57:50;;;;;;;14.48;7.28;;;;;;;17.16;52.79;100246.94;7632597;32;37938;-75
2022/10/13 17:02:11;;;;;;;14.02;7.95;;;;;;;16.82;53.69;100250.00;7632119;32;39416;-75
2022/10/13 17:06:28;;;;;;;15.07;8.38;;;;;;;16.74;54.01;100246.00;7631237;32;40217;-75
2022/10/13 17:10:44;;;;;;;28.67;11.65;;;;;;;16.63;54.17;100255.56;7632397;32;38156;-75
2022/10/13 17:15:00;;;;;;;15.52;9.18;;;;;;;16.53;54.04;100248.28;7632295;32;37149;-75
2022/10/13 17:19:16;;;;;;;24.80;16.17;;;;;;;16.62;53.96;100256.66;7632081;32;39391;-74
2022/10/13 17:23:32;;;;;;;22.85;10.38;;;;;;;16.44;54.77;100250.09;7632096;32;41089;-75
2022/10/13 17:27:48;;;;;;;14.40;8.02;;;;;;;16.46;54.57;100253.38;7632044;32;37996;-75
2022/10/13 17:32:04;;;;;;;15.55;7.80;;;;;;;16.37;54.39;100247.72;7630338;32;38466;-75
2022/10/13 17:36:25;;;;;;;17.17;7.62;;;;;;;16.51;53.76;100250.53;7631812;32;39397;-74
2022/10/13 17:40:41;;;;;;;24.90;9.27;;;;;;;16.61;53.48;100249.53;7631892;32;40888;-74
2022/10/13 17:44:57;;;;;;;16.50;8.15;;;;;;;15.84;55.74;100258.94;7632219;32;38074;-74
2022/10/13 17:49:15;;;;;;;17.90;8.15;;;;;;;15.93;55.62;100251.66;7610994;32;37454;-72
2022/10/13 17:53:31;;;;;;;18.12;9.05;;;;;;;16.04;55.49;100250.41;7612623;32;41144;-74
2022/10/13 17:57:47;;;;;;;15.82;8.25;;;;;;;15.75;56.36;100254.09;7606042;32;39975;-74
2022/10/13 18:02:03;;;;;;;17.70;9.02;;;;;;;15.75;56.31;100251.34;7626170;32;38106;-75
2022/10/13 18:09:09;;;;;;;14.90;7.82;;;;;;;15.83;56.22;100247.13;7808298;32;196822;-74
2022/10/13 18:13:25;;;;;;;17.17;8.65;;;;;;;15.63;56.14;100242.69;7797475;32;39733;-74
2022/10/13 18:17:41;;;;;;;18.17;8.65;;;;;;;15.29;57.04;100248.31;7785278;32;37947;-74
2022/10/13 18:21:57;;;;;;;17.73;10.02;;;;;;;14.98;58.19;100252.22;7805115;32;36933;-74
2022/10/13 18:26:15;;;;;;;23.23;10.63;;;;;;;15.24;57.96;100243.69;7811053;32;39807;-74
2022/10/13 18:30:32;;;;;;;21.33;10.73;;;;;;;15.39;57.56;100249.00;7801485;32;40051;-74
2022/10/13 18:34:49;;;;;;;19.00;9.77;;;;;;;15.18;58.43;100236.66;7785020;32;38165;-74
2022/10/13 18:39:09;;;;;;;16.20;9.75;;;;;;;14.94;58.66;100245.66;7785875;32;37146;-74
2022/10/13 18:43:25;;;;;;;21.85;11.10;;;;;;;15.29;57.28;100234.59;7812417;32;39047;-75
2022/10/13 18:47:41;;;;;;;18.40;10.45;;;;;;;15.11;57.44;100236.16;7812139;32;40710;-74
2022/10/13 18:51:58;;;;;;;17.73;10.10;;;;;;;14.96;58.09;100240.69;7789807;32;38825;-75
2022/10/13 18:56:19;;;;;;;17.08;9.07;;;;;;;14.79;58.24;100235.66;7784763;32;37836;-74
2022/10/13 19:00:35;;;;;;;17.90;10.18;;;;;;;15.02;57.48;100244.19;7797557;32;39810;-73
2022/10/13 19:04:51;;;;;;;16.87;9.95;;;;;;;14.87;57.77;100236.97;7811925;32;41056;-73
2022/10/13 19:09:10;;;;;;;19.15;11.23;;;;;;;14.69;58.31;100238.47;7808464;32;38088;-74
2022/10/13 19:13:26;;;;;;;20.70;11.80;;;;;;;14.62;58.36;100238.81;7786288;32;37828;-74
2022/10/13 19:17:42;;;;;;;24.60;13.52;;;;;;;14.85;57.86;100236.44;7804402;32;39069;-74
2022/10/13 19:21:59;;;;;;;22.80;13.18;;;;;;;14.40;59.14;100239.25;7771931;32;39860;-74
2022/10/13 19:26:18;;;;;;;27.90;15.10;;;;;;;14.37;59.98;100239.81;7772830;32;38098;-73
2022/10/13 19:30:34;;;;;;;20.70;12.50;;;;;;;14.63;58.52;100236.91;7757329;32;38226;-72
2022/10/13 19:34:50;;;;;;;23.75;14.18;;;;;;;14.38;58.90;100241.44;7777405;32;39543;-75
2022/10/13 19:39:11;;;;;;;28.42;12.32;;;;;;;14.24;59.49;100240.47;7771693;32;40798;-74
2022/10/13 19:43:27;;;;;;;20.48;10.80;;;;;;;14.49;58.53;100241.38;7765784;32;38755;-74
2022/10/13 19:47:43;;;;;;;20.10;11.18;;;;;;;14.32;59.02;100236.31;7764672;32;37546;-74
2022/10/13 19:51:59;;;;;;;22.42;11.38;;;;;;;14.07;59.21;100247.16;7787408;32;39803;-73